DCU weather

Pryor Field Regional Airport
Decatur, Alabama, United States

Public forecast

Using degrees Fahrenheit for public forecast. Weather courtesy of forecast.io.

METAR (pilot weather report)

Retrieved 2019/08/24 10:23 UTC (15 minutes ago):

KDCU 241023Z AUTO 00000KT 1/2SM FG VV002 22/22 A3004 RMK AO2 T02170217

TAF (pilot weather forecast)

Closest forecast is Huntsville International Carl T Jones Field, 8.5 nm (15.7 km) E. Retrieved 2019/08/24 06:33 UTC (4 hours ago):

TAF KHSV 240530Z 2406/2506 VRB03KT 5SM BR SCT015 BKN250 FM240800 VRB02KT 2SM BR BKN015 FM241300 07003KT P6SM BKN040 FM241900 02005KT P6SM VCSH BKN050 TEMPO 2420/2424 -TSRA BKN025CB FM250000 35003KT P6SM OVC200